sensor_id;sensor_type;location;lat;lon;timestamp;temperature;humidity
3564;DHT22;1796;52.388;13.096;2023-12-28T00:00:03;3.40;99.90
3564;DHT22;1796;52.388;13.096;2023-12-28T00:02:31;3.50;99.90
3564;DHT22;1796;52.388;13.096;2023-12-28T00:04:58;3.50;99.90
3564;DHT22;1796;52.388;13.096;2023-12-28T00:07:26;3.60;99.90
3564;DHT22;1796;52.388;13.096;2023-12-28T00:09:53;3.80;99.90
3564;DHT22;1796;52.388;13.096;2023-12-28T00:12:20;4.00;99.90
3564;DHT22;1796;52.388;13.096;2023-12-28T00:14:48;4.00;99.90
3564;DHT22;1796;52.388;13.096;2023-12-28T00:17:15;4.10;99.90
3564;DHT22;1796;52.388;13.096;2023-12-28T00:19:42;4.10;99.90
3564;DHT22;1796;52.388;13.096;2023-12-28T00:22:09;4.10;99.90
3564;DHT22;1796;52.388;13.096;2023-12-28T00:24:37;4.10;99.90
3564;DHT22;1796;52.388;13.096;2023-12-28T00:27:04;4.10;99.90
3564;DHT22;1796;52.388;13.096;2023-12-28T00:29:31;4.10;99.90
3564;DHT22;1796;52.388;13.096;2023-12-28T00:31:59;4.10;99.90
3564;DHT22;1796;52.388;13.096;2023-12-28T00:34:26;4.10;99.90
3564;DHT22;1796;52.388;13.096;2023-12-28T00:36:53;4.00;99.90
3564;DHT22;1796;52.388;13.096;2023-12-28T00:39:20;4.10;99.90
3564;DHT22;1796;52.388;13.096;2023-12-28T00:41:48;4.00;99.90
3564;DHT22;1796;52.388;13.096;2023-12-28T00:44:15;4.00;99.90
3564;DHT22;1796;52.388;13.096;2023-12-28T00:46:42;4.00;99.90
3564;DHT22;1796;52.388;13.096;2023-12-28T00:49:09;4.00;99.90
3564;DHT22;1796;52.388;13.096;2023-12-28T00:51:36;4.00;99.90
3564;DHT22;1796;52.388;13.096;2023-12-28T00:54:03;3.90;99.90
3564;DHT22;1796;52.388;13.096;2023-12-28T00:56:30;3.90;99.90
3564;DHT22;1796;52.388;13.096;2023-12-28T00:58:58;3.80;99.90
3564;DHT22;1796;52.388;13.096;2023-12-28T01:01:27;3.80;99.90
3564;DHT22;1796;52.388;13.096;2023-12-28T01:03:56;3.90;99.90
3564;DHT22;1796;52.388;13.096;2023-12-28T01:06:22;3.90;99.90
3564;DHT22;1796;52.388;13.096;2023-12-28T01:08:53;4.00;99.90
3564;DHT22;1796;52.388;13.096;2023-12-28T01:11:20;3.80;99.90
3564;DHT22;1796;52.388;13.096;2023-12-28T01:13:47;3.80;99.90
3564;DHT22;1796;52.388;13.096;2023-12-28T01:16:15;3.80;99.90
3564;DHT22;1796;52.388;13.096;2023-12-28T01:18:42;3.80;99.90
3564;DHT22;1796;52.388;13.096;2023-12-28T01:21:09;3.70;99.90
3564;DHT22;1796;52.388;13.096;2023-12-28T01:23:36;3.90;99.90
3564;DHT22;1796;52.388;13.096;2023-12-28T01:26:03;3.90;99.90
3564;DHT22;1796;52.388;13.096;2023-12-28T01:28:30;4.00;99.90
3564;DHT22;1796;52.388;13.096;2023-12-28T01:30:57;4.10;99.90
3564;DHT22;1796;52.388;13.096;2023-12-28T01:33:25;4.20;99.90
3564;DHT22;1796;52.388;13.096;2023-12-28T01:35:52;4.20;99.90
3564;DHT22;1796;52.388;13.096;2023-12-28T01:38:19;4.30;99.90
3564;DHT22;1796;52.388;13.096;2023-12-28T01:40:46;4.50;99.90
3564;DHT22;1796;52.388;13.096;2023-12-28T01:43:13;4.70;99.90
3564;DHT22;1796;52.388;13.096;2023-12-28T01:45:40;4.80;99.90
3564;DHT22;1796;52.388;13.096;2023-12-28T01:48:07;5.10;99.90
3564;DHT22;1796;52.388;13.096;2023-12-28T01:50:36;5.10;99.90
3564;DHT22;1796;52.388;13.096;2023-12-28T01:53:03;5.20;99.90
3564;DHT22;1796;52.388;13.096;2023-12-28T01:55:30;5.30;99.90
3564;DHT22;1796;52.388;13.096;2023-12-28T01:57:58;5.40;99.90
3564;DHT22;1796;52.388;13.096;2023-12-28T02:00:25;5.40;99.90
3564;DHT22;1796;52.388;13.096;2023-12-28T02:02:52;5.50;99.90
3564;DHT22;1796;52.388;13.096;2023-12-28T02:05:19;5.50;99.90
3564;DHT22;1796;52.388;13.096;2023-12-28T02:07:49;5.70;99.90
3564;DHT22;1796;52.388;13.096;2023-12-28T02:10:16;5.80;99.90
3564;DHT22;1796;52.388;13.096;2023-12-28T02:12:43;5.80;99.90
3564;DHT22;1796;52.388;13.096;2023-12-28T02:15:10;5.90;99.90
3564;DHT22;1796;52.388;13.096;2023-12-28T02:17:43;6.10;99.90
3564;DHT22;1796;52.388;13.096;2023-12-28T02:20:14;6.30;99.90
3564;DHT22;1796;52.388;13.096;2023-12-28T02:22:42;6.30;99.90
3564;DHT22;1796;52.388;13.096;2023-12-28T02:25:11;6.30;99.90
3564;DHT22;1796;52.388;13.096;2023-12-28T02:27:39;6.40;99.90
3564;DHT22;1796;52.388;13.096;2023-12-28T02:30:08;6.50;99.90
3564;DHT22;1796;52.388;13.096;2023-12-28T02:32:54;6.60;99.90
3564;DHT22;1796;52.388;13.096;2023-12-28T02:35:26;6.60;99.90
3564;DHT22;1796;52.388;13.096;2023-12-28T02:37:59;6.70;99.90
3564;DHT22;1796;52.388;13.096;2023-12-28T02:40:32;6.80;99.90
3564;DHT22;1796;52.388;13.096;2023-12-28T02:43:02;6.90;99.90
3564;DHT22;1796;52.388;13.096;2023-12-28T02:45:29;7.00;99.90
3564;DHT22;1796;52.388;13.096;2023-12-28T02:47:56;7.00;99.90
3564;DHT22;1796;52.388;13.096;2023-12-28T02:50:23;7.00;99.90
3564;DHT22;1796;52.388;13.096;2023-12-28T02:52:50;7.10;99.90
3564;DHT22;1796;52.388;13.096;2023-12-28T02:55:17;7.30;99.90
3564;DHT22;1796;52.388;13.096;2023-12-28T02:57:45;7.30;99.90
3564;DHT22;1796;52.388;13.096;2023-12-28T03:00:13;7.40;99.90
3564;DHT22;1796;52.388;13.096;2023-12-28T03:02:40;7.40;99.90
3564;DHT22;1796;52.388;13.096;2023-12-28T03:05:07;7.50;99.90
3564;DHT22;1796;52.388;13.096;2023-12-28T03:07:35;7.60;99.90
3564;DHT22;1796;52.388;13.096;2023-12-28T03:10:02;7.70;99.90
3564;DHT22;1796;52.388;13.096;2023-12-28T03:12:30;7.70;99.90
3564;DHT22;1796;52.388;13.096;2023-12-28T03:14:58;7.70;99.90
3564;DHT22;1796;52.388;13.096;2023-12-28T03:17:25;7.90;99.90
3564;DHT22;1796;52.388;13.096;2023-12-28T03:19:52;7.90;99.90
3564;DHT22;1796;52.388;13.096;2023-12-28T03:22:19;8.00;99.90
3564;DHT22;1796;52.388;13.096;2023-12-28T03:24:46;8.00;99.90
3564;DHT22;1796;52.388;13.096;2023-12-28T03:27:14;8.10;99.90
3564;DHT22;1796;52.388;13.096;2023-12-28T03:29:41;8.20;99.90
3564;DHT22;1796;52.388;13.096;2023-12-28T03:32:10;8.10;99.90
3564;DHT22;1796;52.388;13.096;2023-12-28T03:34:36;7.80;99.90
3564;DHT22;1796;52.388;13.096;2023-12-28T03:37:04;7.50;99.90
3564;DHT22;1796;52.388;13.096;2023-12-28T03:39:30;7.40;99.90
3564;DHT22;1796;52.388;13.096;2023-12-28T03:41:58;7.40;99.90
3564;DHT22;1796;52.388;13.096;2023-12-28T03:44:25;7.40;99.90
3564;DHT22;1796;52.388;13.096;2023-12-28T03:46:52;7.40;99.90
3564;DHT22;1796;52.388;13.096;2023-12-28T03:49:21;7.30;99.90
3564;DHT22;1796;52.388;13.096;2023-12-28T03:51:49;7.20;99.90
3564;DHT22;1796;52.388;13.096;2023-12-28T03:54:17;7.20;99.90
3564;DHT22;1796;52.388;13.096;2023-12-28T03:56:45;7.20;99.90
3564;DHT22;1796;52.388;13.096;2023-12-28T03:59:12;7.20;99.90
3564;DHT22;1796;52.388;13.096;2023-12-28T04:01:40;7.30;99.90
3564;DHT22;1796;52.388;13.096;2023-12-28T04:04:07;7.50;99.90
3564;DHT22;1796;52.388;13.096;2023-12-28T04:06:36;7.50;99.90
3564;DHT22;1796;52.388;13.096;2023-12-28T04:09:02;7.50;99.90
3564;DHT22;1796;52.388;13.096;2023-12-28T04:11:30;7.60;99.90
3564;DHT22;1796;52.388;13.096;2023-12-28T04:13:58;7.80;99.90
3564;DHT22;1796;52.388;13.096;2023-12-28T04:16:25;7.80;99.90
3564;DHT22;1796;52.388;13.096;2023-12-28T04:18:53;8.00;99.90
3564;DHT22;1796;52.388;13.096;2023-12-28T04:21:20;8.00;99.90
3564;DHT22;1796;52.388;13.096;2023-12-28T04:23:48;8.00;99.90
3564;DHT22;1796;52.388;13.096;2023-12-28T04:26:18;8.00;99.90
3564;DHT22;1796;52.388;13.096;2023-12-28T04:28:45;8.10;99.90
3564;DHT22;1796;52.388;13.096;2023-12-28T04:31:13;8.10;99.90
3564;DHT22;1796;52.388;13.096;2023-12-28T04:33:40;8.10;99.90
3564;DHT22;1796;52.388;13.096;2023-12-28T04:36:07;8.10;99.90
3564;DHT22;1796;52.388;13.096;2023-12-28T04:38:36;8.10;99.90
3564;DHT22;1796;52.388;13.096;2023-12-28T04:41:05;8.10;99.90
3564;DHT22;1796;52.388;13.096;2023-12-28T04:43:32;8.10;99.90
3564;DHT22;1796;52.388;13.096;2023-12-28T04:46:02;8.10;99.90
3564;DHT22;1796;52.388;13.096;2023-12-28T04:48:30;8.10;99.90
3564;DHT22;1796;52.388;13.096;2023-12-28T04:50:58;8.10;99.90
3564;DHT22;1796;52.388;13.096;2023-12-28T04:53:27;8.10;99.90
3564;DHT22;1796;52.388;13.096;2023-12-28T04:55:55;8.10;99.90
3564;DHT22;1796;52.388;13.096;2023-12-28T04:58:24;8.20;99.90
3564;DHT22;1796;52.388;13.096;2023-12-28T05:01:00;8.30;99.90
3564;DHT22;1796;52.388;13.096;2023-12-28T05:03:28;8.30;99.90
3564;DHT22;1796;52.388;13.096;2023-12-28T05:05:55;8.40;99.90
3564;DHT22;1796;52.388;13.096;2023-12-28T05:08:22;8.40;99.90
3564;DHT22;1796;52.388;13.096;2023-12-28T05:10:48;8.40;99.90
3564;DHT22;1796;52.388;13.096;2023-12-28T05:13:15;8.50;99.90
3564;DHT22;1796;52.388;13.096;2023-12-28T05:15:43;8.40;99.90
3564;DHT22;1796;52.388;13.096;2023-12-28T05:18:10;8.50;99.90
3564;DHT22;1796;52.388;13.096;2023-12-28T05:20:37;8.50;99.90
3564;DHT22;1796;52.388;13.096;2023-12-28T05:23:05;8.40;99.90
3564;DHT22;1796;52.388;13.096;2023-12-28T05:25:32;8.40;99.90
3564;DHT22;1796;52.388;13.096;2023-12-28T05:27:58;8.30;99.90
3564;DHT22;1796;52.388;13.096;2023-12-28T05:30:25;8.20;99.90
3564;DHT22;1796;52.388;13.096;2023-12-28T05:32:53;8.20;99.90
3564;DHT22;1796;52.388;13.096;2023-12-28T05:35:20;8.30;99.90
3564;DHT22;1796;52.388;13.096;2023-12-28T05:37:47;8.30;99.90
3564;DHT22;1796;52.388;13.096;2023-12-28T05:40:14;8.30;99.90
3564;DHT22;1796;52.388;13.096;2023-12-28T05:42:41;8.30;99.90
3564;DHT22;1796;52.388;13.096;2023-12-28T05:45:09;8.30;99.90
3564;DHT22;1796;52.388;13.096;2023-12-28T05:47:36;8.20;99.90
3564;DHT22;1796;52.388;13.096;2023-12-28T05:50:05;8.30;99.90
3564;DHT22;1796;52.388;13.096;2023-12-28T05:52:32;8.30;99.90
3564;DHT22;1796;52.388;13.096;2023-12-28T05:54:58;8.20;99.90
3564;DHT22;1796;52.388;13.096;2023-12-28T05:57:25;8.30;99.90
3564;DHT22;1796;52.388;13.096;2023-12-28T05:59:55;8.30;99.90
3564;DHT22;1796;52.388;13.096;2023-12-28T06:02:22;8.30;99.90
3564;DHT22;1796;52.388;13.096;2023-12-28T06:04:49;8.20;99.90
3564;DHT22;1796;52.388;13.096;2023-12-28T06:07:17;8.20;99.90
3564;DHT22;1796;52.388;13.096;2023-12-28T06:09:44;8.20;99.90
3564;DHT22;1796;52.388;13.096;2023-12-28T06:12:11;8.20;99.90
3564;DHT22;1796;52.388;13.096;2023-12-28T06:14:38;8.30;99.90
3564;DHT22;1796;52.388;13.096;2023-12-28T06:17:05;8.20;99.90
3564;DHT22;1796;52.388;13.096;2023-12-28T06:19:32;8.20;99.90
3564;DHT22;1796;52.388;13.096;2023-12-28T06:21:59;8.00;99.90
3564;DHT22;1796;52.388;13.096;2023-12-28T06:24:28;8.10;99.90
3564;DHT22;1796;52.388;13.096;2023-12-28T06:26:54;8.10;99.90
3564;DHT22;1796;52.388;13.096;2023-12-28T06:29:22;8.20;99.90
3564;DHT22;1796;52.388;13.096;2023-12-28T06:31:49;8.10;99.90
3564;DHT22;1796;52.388;13.096;2023-12-28T06:34:16;8.20;99.90
3564;DHT22;1796;52.388;13.096;2023-12-28T06:36:43;8.20;99.90
3564;DHT22;1796;52.388;13.096;2023-12-28T06:39:09;8.20;99.90
3564;DHT22;1796;52.388;13.096;2023-12-28T06:41:38;8.20;99.90
3564;DHT22;1796;52.388;13.096;2023-12-28T06:44:05;8.20;99.90
3564;DHT22;1796;52.388;13.096;2023-12-28T06:46:31;8.20;99.90
3564;DHT22;1796;52.388;13.096;2023-12-28T06:48:58;8.20;99.90
3564;DHT22;1796;52.388;13.096;2023-12-28T06:51:25;8.10;99.90
3564;DHT22;1796;52.388;13.096;2023-12-28T06:53:52;8.20;99.90
3564;DHT22;1796;52.388;13.096;2023-12-28T06:56:19;8.00;99.90
3564;DHT22;1796;52.388;13.096;2023-12-28T06:58:47;8.00;99.90
3564;DHT22;1796;52.388;13.096;2023-12-28T07:01:14;8.10;99.90
3564;DHT22;1796;52.388;13.096;2023-12-28T07:03:41;8.10;99.90
3564;DHT22;1796;52.388;13.096;2023-12-28T07:06:08;8.10;99.90
3564;DHT22;1796;52.388;13.096;2023-12-28T07:08:35;8.10;99.90
3564;DHT22;1796;52.388;13.096;2023-12-28T07:11:03;8.10;99.90
3564;DHT22;1796;52.388;13.096;2023-12-28T07:13:30;8.00;99.90
3564;DHT22;1796;52.388;13.096;2023-12-28T07:15:58;8.00;99.90
3564;DHT22;1796;52.388;13.096;2023-12-28T07:18:25;8.00;99.90
3564;DHT22;1796;52.388;13.096;2023-12-28T07:20:51;8.00;99.90
3564;DHT22;1796;52.388;13.096;2023-12-28T07:23:19;8.00;99.90
3564;DHT22;1796;52.388;13.096;2023-12-28T07:25:46;7.90;99.90
3564;DHT22;1796;52.388;13.096;2023-12-28T07:28:13;7.90;99.90
3564;DHT22;1796;52.388;13.096;2023-12-28T07:30:40;7.90;99.90
3564;DHT22;1796;52.388;13.096;2023-12-28T07:33:09;7.80;99.90
3564;DHT22;1796;52.388;13.096;2023-12-28T07:35:36;7.90;99.90
3564;DHT22;1796;52.388;13.096;2023-12-28T07:38:04;7.90;99.90
3564;DHT22;1796;52.388;13.096;2023-12-28T07:40:35;7.80;99.90
3564;DHT22;1796;52.388;13.096;2023-12-28T07:43:03;7.90;99.90
3564;DHT22;1796;52.388;13.096;2023-12-28T07:45:30;7.80;99.90
3564;DHT22;1796;52.388;13.096;2023-12-28T07:47:58;7.80;99.90
3564;DHT22;1796;52.388;13.096;2023-12-28T07:50:26;7.80;99.90
3564;DHT22;1796;52.388;13.096;2023-12-28T07:52:53;7.70;99.90
3564;DHT22;1796;52.388;13.096;2023-12-28T07:55:20;7.70;99.90
3564;DHT22;1796;52.388;13.096;2023-12-28T07:57:47;7.60;99.90
3564;DHT22;1796;52.388;13.096;2023-12-28T08:00:15;7.80;99.90
3564;DHT22;1796;52.388;13.096;2023-12-28T08:02:42;7.80;99.90
3564;DHT22;1796;52.388;13.096;2023-12-28T08:05:09;7.80;99.90
3564;DHT22;1796;52.388;13.096;2023-12-28T08:07:38;7.80;99.90
3564;DHT22;1796;52.388;13.096;2023-12-28T08:10:06;7.90;99.90
3564;DHT22;1796;52.388;13.096;2023-12-28T08:12:33;7.90;99.90
3564;DHT22;1796;52.388;13.096;2023-12-28T08:15:00;7.90;99.90
3564;DHT22;1796;52.388;13.096;2023-12-28T08:17:27;7.90;99.90
3564;DHT22;1796;52.388;13.096;2023-12-28T08:19:53;8.00;99.90
3564;DHT22;1796;52.388;13.096;2023-12-28T08:22:21;8.10;99.90
3564;DHT22;1796;52.388;13.096;2023-12-28T08:24:49;8.10;99.90
3564;DHT22;1796;52.388;13.096;2023-12-28T08:27:16;8.10;99.90
3564;DHT22;1796;52.388;13.096;2023-12-28T08:29:43;8.10;99.90
3564;DHT22;1796;52.388;13.096;2023-12-28T08:32:20;8.10;99.90
3564;DHT22;1796;52.388;13.096;2023-12-28T08:34:48;8.10;99.90
3564;DHT22;1796;52.388;13.096;2023-12-28T08:37:16;8.10;99.90
3564;DHT22;1796;52.388;13.096;2023-12-28T08:39:43;8.10;99.90
3564;DHT22;1796;52.388;13.096;2023-12-28T08:42:11;8.10;99.90
3564;DHT22;1796;52.388;13.096;2023-12-28T08:44:38;8.20;99.90
3564;DHT22;1796;52.388;13.096;2023-12-28T08:47:05;8.20;99.90
3564;DHT22;1796;52.388;13.096;2023-12-28T08:49:32;8.20;99.90
3564;DHT22;1796;52.388;13.096;2023-12-28T08:51:59;8.30;99.90
3564;DHT22;1796;52.388;13.096;2023-12-28T08:54:26;8.30;99.90
3564;DHT22;1796;52.388;13.096;2023-12-28T08:56:53;8.30;99.90
3564;DHT22;1796;52.388;13.096;2023-12-28T08:59:21;8.30;99.90
3564;DHT22;1796;52.388;13.096;2023-12-28T09:01:48;8.30;99.90
3564;DHT22;1796;52.388;13.096;2023-12-28T09:04:15;8.30;99.90
3564;DHT22;1796;52.388;13.096;2023-12-28T09:06:42;8.40;99.90
3564;DHT22;1796;52.388;13.096;2023-12-28T09:09:09;8.40;99.90
3564;DHT22;1796;52.388;13.096;2023-12-28T09:11:36;8.40;99.90
3564;DHT22;1796;52.388;13.096;2023-12-28T09:14:03;8.40;99.90
3564;DHT22;1796;52.388;13.096;2023-12-28T09:16:31;8.30;99.90
3564;DHT22;1796;52.388;13.096;2023-12-28T09:18:58;8.30;99.90
3564;DHT22;1796;52.388;13.096;2023-12-28T09:21:25;8.30;99.90
3564;DHT22;1796;52.388;13.096;2023-12-28T09:23:52;8.30;99.90
3564;DHT22;1796;52.388;13.096;2023-12-28T09:26:19;8.30;99.90
3564;DHT22;1796;52.388;13.096;2023-12-28T09:28:46;8.30;99.90
3564;DHT22;1796;52.388;13.096;2023-12-28T09:31:12;8.30;99.90
3564;DHT22;1796;52.388;13.096;2023-12-28T09:33:41;8.20;99.90
3564;DHT22;1796;52.388;13.096;2023-12-28T09:36:12;8.30;99.90
3564;DHT22;1796;52.388;13.096;2023-12-28T09:38:49;8.20;99.90
3564;DHT22;1796;52.388;13.096;2023-12-28T09:41:17;8.20;99.90
3564;DHT22;1796;52.388;13.096;2023-12-28T09:43:52;8.20;99.90
3564;DHT22;1796;52.388;13.096;2023-12-28T09:46:20;8.30;99.90
3564;DHT22;1796;52.388;13.096;2023-12-28T09:48:49;8.20;99.90
3564;DHT22;1796;52.388;13.096;2023-12-28T09:51:16;8.20;99.90
3564;DHT22;1796;52.388;13.096;2023-12-28T09:53:43;8.30;99.90
3564;DHT22;1796;52.388;13.096;2023-12-28T09:56:12;8.40;99.90
3564;DHT22;1796;52.388;13.096;2023-12-28T09:58:39;8.40;99.90
3564;DHT22;1796;52.388;13.096;2023-12-28T10:01:07;8.40;99.90
3564;DHT22;1796;52.388;13.096;2023-12-28T10:03:36;8.40;99.90
3564;DHT22;1796;52.388;13.096;2023-12-28T10:06:05;8.40;99.90
3564;DHT22;1796;52.388;13.096;2023-12-28T10:08:32;8.50;99.90
3564;DHT22;1796;52.388;13.096;2023-12-28T10:10:59;8.60;99.90
3564;DHT22;1796;52.388;13.096;2023-12-28T10:13:26;8.50;99.90
3564;DHT22;1796;52.388;13.096;2023-12-28T10:15:57;8.60;99.90
3564;DHT22;1796;52.388;13.096;2023-12-28T10:18:32;8.60;99.90
3564;DHT22;1796;52.388;13.096;2023-12-28T10:20:59;8.60;99.90
3564;DHT22;1796;52.388;13.096;2023-12-28T10:23:28;8.60;99.90
3564;DHT22;1796;52.388;13.096;2023-12-28T10:25:56;8.60;99.90
3564;DHT22;1796;52.388;13.096;2023-12-28T10:28:24;8.60;99.90
3564;DHT22;1796;52.388;13.096;2023-12-28T10:30:54;8.60;99.90
3564;DHT22;1796;52.388;13.096;2023-12-28T10:33:21;8.70;99.90
3564;DHT22;1796;52.388;13.096;2023-12-28T10:35:50;8.70;99.90
3564;DHT22;1796;52.388;13.096;2023-12-28T10:38:18;8.80;99.90
3564;DHT22;1796;52.388;13.096;2023-12-28T10:40:47;8.80;99.90
3564;DHT22;1796;52.388;13.096;2023-12-28T10:43:16;8.80;99.90
3564;DHT22;1796;52.388;13.096;2023-12-28T10:45:46;8.90;99.90
3564;DHT22;1796;52.388;13.096;2023-12-28T10:48:14;9.00;99.90
3564;DHT22;1796;52.388;13.096;2023-12-28T10:50:42;9.00;99.90
3564;DHT22;1796;52.388;13.096;2023-12-28T10:53:23;9.00;99.90
3564;DHT22;1796;52.388;13.096;2023-12-28T10:56:03;9.00;99.90
3564;DHT22;1796;52.388;13.096;2023-12-28T10:58:38;9.00;99.90
3564;DHT22;1796;52.388;13.096;2023-12-28T11:01:09;9.00;99.90
3564;DHT22;1796;52.388;13.096;2023-12-28T11:03:40;9.10;99.90
3564;DHT22;1796;52.388;13.096;2023-12-28T11:06:08;9.20;99.90
3564;DHT22;1796;52.388;13.096;2023-12-28T11:08:37;9.20;99.90
3564;DHT22;1796;52.388;13.096;2023-12-28T11:11:08;9.30;99.90
3564;DHT22;1796;52.388;13.096;2023-12-28T11:13:35;9.40;99.90
3564;DHT22;1796;52.388;13.096;2023-12-28T11:16:04;9.40;99.90
3564;DHT22;1796;52.388;13.096;2023-12-28T11:18:31;9.40;99.90
3564;DHT22;1796;52.388;13.096;2023-12-28T11:20:58;9.60;99.90
3564;DHT22;1796;52.388;13.096;2023-12-28T11:23:25;9.70;99.90
3564;DHT22;1796;52.388;13.096;2023-12-28T11:25:53;9.60;99.90
3564;DHT22;1796;52.388;13.096;2023-12-28T11:28:23;9.40;99.90
3564;DHT22;1796;52.388;13.096;2023-12-28T11:30:51;9.40;99.90
3564;DHT22;1796;52.388;13.096;2023-12-28T11:33:18;9.40;99.90
3564;DHT22;1796;52.388;13.096;2023-12-28T11:35:47;9.40;99.90
3564;DHT22;1796;52.388;13.096;2023-12-28T11:38:15;9.30;99.90
3564;DHT22;1796;52.388;13.096;2023-12-28T11:40:45;9.20;99.90
3564;DHT22;1796;52.388;13.096;2023-12-28T11:43:18;9.20;99.90
3564;DHT22;1796;52.388;13.096;2023-12-28T11:45:51;9.30;99.90
3564;DHT22;1796;52.388;13.096;2023-12-28T11:48:25;9.30;99.90
3564;DHT22;1796;52.388;13.096;2023-12-28T11:50:56;9.40;99.90
3564;DHT22;1796;52.388;13.096;2023-12-28T11:53:24;9.30;99.90
3564;DHT22;1796;52.388;13.096;2023-12-28T11:55:52;9.40;99.90
3564;DHT22;1796;52.388;13.096;2023-12-28T11:58:19;9.40;99.90
3564;DHT22;1796;52.388;13.096;2023-12-28T12:00:49;9.50;99.90
3564;DHT22;1796;52.388;13.096;2023-12-28T12:03:18;9.60;99.90
3564;DHT22;1796;52.388;13.096;2023-12-28T12:05:45;9.60;99.90
3564;DHT22;1796;52.388;13.096;2023-12-28T12:08:12;9.60;99.90
3564;DHT22;1796;52.388;13.096;2023-12-28T12:10:40;9.60;99.90
3564;DHT22;1796;52.388;13.096;2023-12-28T12:13:07;9.60;99.90
3564;DHT22;1796;52.388;13.096;2023-12-28T12:15:34;9.60;99.90
3564;DHT22;1796;52.388;13.096;2023-12-28T12:18:01;9.70;99.90
3564;DHT22;1796;52.388;13.096;2023-12-28T12:20:30;9.70;99.90
3564;DHT22;1796;52.388;13.096;2023-12-28T12:22:58;9.70;99.90
3564;DHT22;1796;52.388;13.096;2023-12-28T12:25:25;9.70;99.90
3564;DHT22;1796;52.388;13.096;2023-12-28T12:27:53;9.70;99.90
3564;DHT22;1796;52.388;13.096;2023-12-28T12:30:20;9.70;99.90
3564;DHT22;1796;52.388;13.096;2023-12-28T12:32:48;9.70;99.90
3564;DHT22;1796;52.388;13.096;2023-12-28T12:35:15;9.70;99.90
3564;DHT22;1796;52.388;13.096;2023-12-28T12:37:45;9.80;99.90
3564;DHT22;1796;52.388;13.096;2023-12-28T12:40:12;9.80;99.90
3564;DHT22;1796;52.388;13.096;2023-12-28T12:42:41;9.80;99.90
3564;DHT22;1796;52.388;13.096;2023-12-28T12:45:08;9.80;99.90
3564;DHT22;1796;52.388;13.096;2023-12-28T12:47:36;9.90;99.90
3564;DHT22;1796;52.388;13.096;2023-12-28T12:50:03;9.80;99.90
3564;DHT22;1796;52.388;13.096;2023-12-28T12:52:31;9.90;99.90
3564;DHT22;1796;52.388;13.096;2023-12-28T12:54:59;9.90;99.90
3564;DHT22;1796;52.388;13.096;2023-12-28T12:57:26;9.90;99.90
3564;DHT22;1796;52.388;13.096;2023-12-28T12:59:53;9.90;99.90
3564;DHT22;1796;52.388;13.096;2023-12-28T13:02:22;9.90;99.90
3564;DHT22;1796;52.388;13.096;2023-12-28T13:04:51;9.90;99.90
3564;DHT22;1796;52.388;13.096;2023-12-28T13:07:19;9.90;99.90
3564;DHT22;1796;52.388;13.096;2023-12-28T13:09:46;9.80;99.90
3564;DHT22;1796;52.388;13.096;2023-12-28T13:12:14;9.80;99.90
3564;DHT22;1796;52.388;13.096;2023-12-28T13:14:41;9.90;99.90
3564;DHT22;1796;52.388;13.096;2023-12-28T13:17:10;9.80;99.90
3564;DHT22;1796;52.388;13.096;2023-12-28T13:19:36;9.80;99.90
3564;DHT22;1796;52.388;13.096;2023-12-28T13:22:03;9.80;99.90
3564;DHT22;1796;52.388;13.096;2023-12-28T13:24:30;9.70;99.90
3564;DHT22;1796;52.388;13.096;2023-12-28T13:26:57;9.70;99.90
3564;DHT22;1796;52.388;13.096;2023-12-28T13:29:25;9.60;99.90
3564;DHT22;1796;52.388;13.096;2023-12-28T13:31:52;9.60;99.90
3564;DHT22;1796;52.388;13.096;2023-12-28T13:34:19;9.60;99.90
3564;DHT22;1796;52.388;13.096;2023-12-28T13:36:46;9.70;99.90
3564;DHT22;1796;52.388;13.096;2023-12-28T13:39:13;9.90;99.90
3564;DHT22;1796;52.388;13.096;2023-12-28T13:41:40;10.00;99.90
3564;DHT22;1796;52.388;13.096;2023-12-28T13:44:07;10.00;99.90
3564;DHT22;1796;52.388;13.096;2023-12-28T13:46:39;10.00;99.90
3564;DHT22;1796;52.388;13.096;2023-12-28T13:49:06;10.10;99.90
3564;DHT22;1796;52.388;13.096;2023-12-28T13:51:33;10.10;99.90
3564;DHT22;1796;52.388;13.096;2023-12-28T13:54:00;10.10;99.90
3564;DHT22;1796;52.388;13.096;2023-12-28T13:56:27;10.10;99.90
3564;DHT22;1796;52.388;13.096;2023-12-28T13:58:54;10.10;99.90
3564;DHT22;1796;52.388;13.096;2023-12-28T14:01:21;10.00;99.90
3564;DHT22;1796;52.388;13.096;2023-12-28T14:03:49;10.00;99.90
3564;DHT22;1796;52.388;13.096;2023-12-28T14:06:17;10.00;99.90
3564;DHT22;1796;52.388;13.096;2023-12-28T14:08:44;10.00;99.90
3564;DHT22;1796;52.388;13.096;2023-12-28T14:11:11;10.10;99.90
3564;DHT22;1796;52.388;13.096;2023-12-28T14:13:38;10.10;99.90
3564;DHT22;1796;52.388;13.096;2023-12-28T14:16:05;10.10;99.90
3564;DHT22;1796;52.388;13.096;2023-12-28T14:18:34;10.00;99.90
3564;DHT22;1796;52.388;13.096;2023-12-28T14:21:02;9.90;99.90
3564;DHT22;1796;52.388;13.096;2023-12-28T14:23:30;9.90;99.90
3564;DHT22;1796;52.388;13.096;2023-12-28T14:25:58;9.80;99.90
3564;DHT22;1796;52.388;13.096;2023-12-28T14:28:25;9.80;99.90
3564;DHT22;1796;52.388;13.096;2023-12-28T14:30:52;9.80;99.90
3564;DHT22;1796;52.388;13.096;2023-12-28T14:33:20;9.70;99.90
3564;DHT22;1796;52.388;13.096;2023-12-28T14:35:47;9.60;99.90
3564;DHT22;1796;52.388;13.096;2023-12-28T14:38:16;9.70;99.90
3564;DHT22;1796;52.388;13.096;2023-12-28T14:40:42;9.60;99.90
3564;DHT22;1796;52.388;13.096;2023-12-28T14:43:09;9.70;99.90
3564;DHT22;1796;52.388;13.096;2023-12-28T14:45:36;9.70;99.90
3564;DHT22;1796;52.388;13.096;2023-12-28T14:48:04;9.70;99.90
3564;DHT22;1796;52.388;13.096;2023-12-28T14:50:30;9.60;99.90
3564;DHT22;1796;52.388;13.096;2023-12-28T14:52:58;9.60;99.90
3564;DHT22;1796;52.388;13.096;2023-12-28T14:55:26;9.50;99.90
3564;DHT22;1796;52.388;13.096;2023-12-28T14:57:54;9.50;99.90
3564;DHT22;1796;52.388;13.096;2023-12-28T15:00:21;9.40;99.90
3564;DHT22;1796;52.388;13.096;2023-12-28T15:02:48;9.30;99.90
3564;DHT22;1796;52.388;13.096;2023-12-28T15:05:15;9.20;99.90
3564;DHT22;1796;52.388;13.096;2023-12-28T15:07:41;9.10;99.90
3564;DHT22;1796;52.388;13.096;2023-12-28T15:10:10;9.00;99.90
3564;DHT22;1796;52.388;13.096;2023-12-28T15:12:39;9.10;99.90
3564;DHT22;1796;52.388;13.096;2023-12-28T15:15:07;9.10;99.90
3564;DHT22;1796;52.388;13.096;2023-12-28T15:17:35;9.00;99.90
3564;DHT22;1796;52.388;13.096;2023-12-28T15:20:03;8.90;99.90
3564;DHT22;1796;52.388;13.096;2023-12-28T15:22:30;8.90;99.90
3564;DHT22;1796;52.388;13.096;2023-12-28T15:24:57;8.80;99.90
3564;DHT22;1796;52.388;13.096;2023-12-28T15:27:24;8.80;99.90
3564;DHT22;1796;52.388;13.096;2023-12-28T15:29:52;8.80;99.90
3564;DHT22;1796;52.388;13.096;2023-12-28T15:32:19;8.90;99.90
3564;DHT22;1796;52.388;13.096;2023-12-28T15:34:46;8.80;99.90
3564;DHT22;1796;52.388;13.096;2023-12-28T15:37:13;8.80;99.90
3564;DHT22;1796;52.388;13.096;2023-12-28T15:39:40;8.70;99.90
3564;DHT22;1796;52.388;13.096;2023-12-28T15:42:07;8.70;99.90
3564;DHT22;1796;52.388;13.096;2023-12-28T15:44:34;8.90;99.90
3564;DHT22;1796;52.388;13.096;2023-12-28T15:47:03;8.80;99.90
3564;DHT22;1796;52.388;13.096;2023-12-28T15:49:29;8.70;99.90
3564;DHT22;1796;52.388;13.096;2023-12-28T15:51:56;8.70;99.90
3564;DHT22;1796;52.388;13.096;2023-12-28T15:54:23;8.60;99.90
3564;DHT22;1796;52.388;13.096;2023-12-28T15:56:50;8.60;99.90
3564;DHT22;1796;52.388;13.096;2023-12-28T15:59:17;8.40;99.90
3564;DHT22;1796;52.388;13.096;2023-12-28T16:01:44;8.40;99.90
3564;DHT22;1796;52.388;13.096;2023-12-28T16:04:12;8.40;99.90